KSAZ

Staples Municipal Airport

Staples, Minnesota, USA
METAR KSAZ 191235Z AUTO 00000KT 7SM CLR M06/M06 A2956 RMK AO2
Observed Flight Rules
Dec-19 @ 12:35 UTC (5 minutes ago) Visual Flight Rules
Visibility Clouds
7 miles
  • Clear skies
Temperatures Readings
Current -6°C / 21°F
Dewpoint -6°C / 21°F
Humidity 100%
Altimeter 29.56" Hg
Pressure 1001 hPa
Elevation 392
METAR KSAZ 191235Z AUTO 00000KT 7SM CLR M06/M06 A2956 RMK AO2
Observed Flight Rules
Dec-19 @ 12:35 UTC
(5 minutes ago)
VFR
Clouds
  • Clear skies
Temperature Dewpoint
-6°C / 21°F -6°C / 21°F
Humidity Altimeter Pressure
100% 29.56" Hg 1001 hPa